Time;durP1;ratioP1;P1;durP2;ratioP2;P2;SDS_P1;SDS_P2;PMS_P1;PMS_P2;Temp;Humidity;BMP_temperature;BMP_pressure;BME280_temperature;BME280_humidity;BME280_pressure;Samples;Min_cycle;Max_cycle;Signal;HPM_P1;HPM_P2
2020/12/15 00:02:08;;;;;;;1.50;0.90;;;21.10;46.10;;;;;;6246500;28;20026;-68
2020/12/15 00:05:09;;;;;;;1.65;1.05;;;21.10;45.50;;;;;;6267774;28;20029;-68
2020/12/15 00:08:09;;;;;;;1.15;1.00;;;21.10;45.30;;;;;;6271420;28;20104;-68
2020/12/15 00:11:17;;;;;;;1.45;1.00;;;21.10;45.40;;;;;;6270824;28;20098;-68
2020/12/15 00:14:18;;;;;;;1.85;0.98;;;21.10;45.40;;;;;;6271481;28;20044;-68
2020/12/15 00:17:18;;;;;;;1.50;1.00;;;21.10;45.50;;;;;;6270887;28;20036;-68
2020/12/15 00:20:18;;;;;;;0.73;0.73;;;21.10;45.40;;;;;;6270770;28;20029;-68
2020/12/15 00:23:19;;;;;;;1.10;1.00;;;21.10;45.30;;;;;;6270985;28;20032;-68
2020/12/15 00:26:20;;;;;;;0.82;0.82;;;21.10;45.40;;;;;;6270773;28;20028;-68
2020/12/15 00:29:21;;;;;;;1.30;1.10;;;21.10;45.50;;;;;;6270478;28;20029;-68
2020/12/15 00:32:21;;;;;;;1.67;1.10;;;21.00;45.40;;;;;;6270582;28;20048;-68
2020/12/15 00:35:22;;;;;;;1.08;0.98;;;21.00;45.50;;;;;;6270862;28;20390;-68
2020/12/15 00:38:22;;;;;;;1.40;0.98;;;21.00;45.30;;;;;;6270590;28;20039;-68
2020/12/15 00:41:23;;;;;;;1.55;1.00;;;21.00;45.40;;;;;;6270293;28;20029;-68
2020/12/15 00:44:23;;;;;;;1.20;0.90;;;21.00;45.40;;;;;;6269213;28;20501;-68
2020/12/15 00:47:24;;;;;;;1.63;1.10;;;21.00;45.60;;;;;;6268191;28;20021;-68
2020/12/15 00:50:24;;;;;;;0.93;0.80;;;21.00;45.50;;;;;;6270027;28;20028;-68
2020/12/15 00:53:25;;;;;;;1.70;1.17;;;21.00;45.40;;;;;;6270305;28;20108;-68
2020/12/15 00:56:25;;;;;;;1.52;1.00;;;21.00;45.40;;;;;;6270131;28;20065;-68
2020/12/15 00:59:26;;;;;;;1.17;0.80;;;21.00;45.50;;;;;;6270055;28;20496;-68
2020/12/15 01:02:26;;;;;;;0.95;0.85;;;21.00;45.30;;;;;;6270346;28;20423;-68
2020/12/15 01:05:27;;;;;;;1.10;0.90;;;21.00;45.30;;;;;;6270320;28;20498;-68
2020/12/15 01:08:28;;;;;;;1.08;0.93;;;21.00;45.40;;;;;;6270326;28;20025;-68
2020/12/15 01:11:29;;;;;;;1.30;0.90;;;21.00;46.10;;;;;;6269507;28;20032;-68
2020/12/15 01:14:30;;;;;;;1.20;0.90;;;21.00;45.50;;;;;;6270408;28;20013;-68
2020/12/15 01:17:30;;;;;;;0.90;0.80;;;21.00;45.40;;;;;;6269889;28;20094;-69
2020/12/15 01:20:31;;;;;;;1.00;0.90;;;21.00;45.50;;;;;;6269389;28;20040;-68
2020/12/15 01:23:31;;;;;;;1.23;1.08;;;21.00;45.40;;;;;;6269501;28;20150;-68
2020/12/15 01:26:31;;;;;;;1.10;1.00;;;21.00;45.40;;;;;;6269725;28;20091;-68
2020/12/15 01:29:32;;;;;;;1.30;1.00;;;21.00;45.50;;;;;;6269144;28;20049;-68
2020/12/15 01:32:34;;;;;;;1.60;1.10;;;21.00;45.30;;;;;;6269284;28;20060;-68
2020/12/15 01:35:34;;;;;;;1.33;1.05;;;21.00;45.40;;;;;;6269498;28;20019;-68
2020/12/15 01:38:34;;;;;;;1.20;0.90;;;21.00;45.40;;;;;;6268960;28;20029;-68
2020/12/15 01:41:35;;;;;;;1.17;0.90;;;20.90;45.30;;;;;;6259051;28;20025;-68
2020/12/15 01:44:35;;;;;;;0.98;0.75;;;20.90;45.40;;;;;;6244249;28;20025;-68
2020/12/15 01:47:36;;;;;;;1.50;1.27;;;20.90;45.30;;;;;;6244475;28;20096;-68
2020/12/15 01:50:38;;;;;;;1.00;0.90;;;20.90;45.30;;;;;;6243523;28;20025;-68
2020/12/15 01:53:38;;;;;;;1.10;0.88;;;20.90;45.30;;;;;;6243167;28;20022;-68
2020/12/15 01:56:39;;;;;;;1.30;0.98;;;20.90;45.40;;;;;;6243889;28;20021;-68
2020/12/15 01:59:39;;;;;;;1.05;0.90;;;20.90;45.30;;;;;;6244207;28;20099;-68
2020/12/15 02:02:40;;;;;;;1.13;0.90;;;20.90;45.30;;;;;;6243846;28;20030;-68
2020/12/15 02:05:41;;;;;;;1.33;1.10;;;20.90;45.30;;;;;;6262564;28;20494;-69
2020/12/15 02:08:45;;;;;;;1.48;1.35;;;20.90;45.30;;;;;;6268992;28;20029;-68
2020/12/15 02:11:49;;;;;;;1.45;1.00;;;20.90;45.30;;;;;;6268004;28;20048;-68
2020/12/15 02:14:49;;;;;;;1.05;0.88;;;20.90;45.40;;;;;;6268814;28;20480;-68
2020/12/15 02:17:50;;;;;;;1.30;1.00;;;20.90;46.00;;;;;;6268072;28;20079;-68
2020/12/15 02:20:50;;;;;;;1.13;1.02;;;20.90;45.30;;;;;;6267889;28;20037;-68
2020/12/15 02:23:50;;;;;;;1.38;0.90;;;20.90;45.40;;;;;;6268136;28;20039;-68
2020/12/15 02:26:52;;;;;;;0.77;0.65;;;20.80;45.40;;;;;;6268417;28;20071;-68
2020/12/15 02:29:53;;;;;;;1.08;0.90;;;20.80;45.30;;;;;;6267107;28;20021;-68
2020/12/15 02:32:53;;;;;;;1.05;0.98;;;20.80;45.30;;;;;;6267765;28;20024;-68
2020/12/15 02:35:54;;;;;;;1.17;0.93;;;20.90;45.40;;;;;;6268211;28;20028;-68
2020/12/15 02:39:01;;;;;;;1.17;0.82;;;20.80;45.40;;;;;;6266132;28;20025;-68
2020/12/15 02:42:02;;;;;;;1.15;0.80;;;20.80;45.30;;;;;;6267672;28;20036;-68
2020/12/15 02:45:03;;;;;;;1.35;0.90;;;20.80;45.30;;;;;;6268118;28;20067;-68
2020/12/15 02:48:04;;;;;;;1.15;0.90;;;20.80;45.30;;;;;;6267531;28;20025;-68
2020/12/15 02:51:04;;;;;;;1.15;0.90;;;20.80;45.40;;;;;;6267627;28;20029;-68
2020/12/15 02:54:05;;;;;;;1.00;0.90;;;20.80;45.30;;;;;;6267520;28;20387;-68
2020/12/15 02:57:05;;;;;;;1.00;0.93;;;20.80;45.40;;;;;;6267604;28;20467;-68
2020/12/15 03:00:10;;;;;;;0.88;0.80;;;20.80;45.30;;;;;;6267440;28;20033;-68
2020/12/15 03:03:11;;;;;;;0.98;0.88;;;20.80;45.30;;;;;;6267372;28;20036;-68
2020/12/15 03:06:12;;;;;;;1.00;0.90;;;20.80;45.40;;;;;;6267818;28;20033;-68
2020/12/15 03:09:13;;;;;;;1.58;1.20;;;20.80;45.30;;;;;;6267381;28;20399;-68
2020/12/15 03:12:13;;;;;;;1.13;1.00;;;20.80;45.30;;;;;;6266994;28;20036;-68
2020/12/15 03:15:14;;;;;;;1.27;0.90;;;20.80;45.30;;;;;;6258431;28;20032;-68
2020/12/15 03:18:15;;;;;;;1.50;1.00;;;20.80;45.30;;;;;;6242542;28;20044;-68
2020/12/15 03:21:17;;;;;;;1.45;1.00;;;20.80;45.40;;;;;;6242515;28;20028;-68
2020/12/15 03:24:18;;;;;;;1.27;0.95;;;20.80;45.30;;;;;;6242312;28;20463;-68
2020/12/15 03:27:18;;;;;;;1.75;0.88;;;20.80;45.40;;;;;;6242829;28;20026;-68
2020/12/15 03:30:19;;;;;;;1.50;0.98;;;20.80;45.30;;;;;;6242123;28;20413;-68
2020/12/15 03:33:19;;;;;;;1.05;0.95;;;20.80;45.40;;;;;;6243000;28;20029;-68
2020/12/15 03:36:20;;;;;;;1.25;1.00;;;20.80;45.40;;;;;;6250611;28;20030;-69
2020/12/15 03:39:20;;;;;;;1.23;1.00;;;20.80;45.40;;;;;;6259293;28;20065;-68
2020/12/15 03:42:20;;;;;;;1.23;0.98;;;20.80;45.40;;;;;;6246230;28;20022;-68
2020/12/15 03:45:21;;;;;;;0.90;0.80;;;20.80;46.20;;;;;;6242265;28;20032;-68
2020/12/15 03:48:21;;;;;;;1.20;0.90;;;20.70;45.40;;;;;;6242706;28;20037;-68
2020/12/15 03:51:22;;;;;;;0.80;0.80;;;20.70;45.50;;;;;;6241694;28;20052;-68
2020/12/15 03:54:22;;;;;;;1.05;0.75;;;20.70;46.10;;;;;;6242527;28;20104;-68
2020/12/15 03:57:23;;;;;;;0.80;0.80;;;20.70;45.40;;;;;;6242301;28;20037;-68
2020/12/15 04:00:24;;;;;;;1.73;1.05;;;20.70;45.40;;;;;;6241617;28;20084;-68
2020/12/15 04:03:24;;;;;;;1.30;1.10;;;20.70;45.40;;;;;;6242567;28;20025;-68
2020/12/15 04:06:25;;;;;;;1.15;0.90;;;20.70;45.40;;;;;;6242030;28;20476;-68
2020/12/15 04:09:25;;;;;;;1.02;0.80;;;20.70;45.40;;;;;;6242289;28;20029;-68
2020/12/15 04:12:26;;;;;;;1.13;0.93;;;20.70;45.50;;;;;;6241600;28;20036;-68
2020/12/15 04:15:26;;;;;;;0.93;0.88;;;20.70;45.50;;;;;;6242383;28;20101;-68
2020/12/15 04:18:27;;;;;;;1.38;1.05;;;20.70;45.40;;;;;;6254024;28;20084;-68
2020/12/15 04:21:28;;;;;;;1.73;0.90;;;20.70;45.50;;;;;;6271055;28;20048;-68
2020/12/15 04:24:29;;;;;;;1.30;1.08;;;20.70;45.50;;;;;;6270714;28;20482;-68
2020/12/15 04:27:30;;;;;;;1.08;0.98;;;20.70;45.40;;;;;;6271000;28;20033;-68
2020/12/15 04:30:30;;;;;;;1.02;0.90;;;20.70;45.40;;;;;;6273546;28;20021;-68
2020/12/15 04:33:31;;;;;;;1.60;1.20;;;20.70;45.40;;;;;;6275525;28;20021;-68
2020/12/15 04:36:31;;;;;;;1.10;1.00;;;20.70;45.50;;;;;;6275434;28;20387;-68
2020/12/15 04:39:32;;;;;;;2.40;1.13;;;20.70;45.40;;;;;;6273585;28;20475;-68
2020/12/15 04:42:34;;;;;;;1.77;1.02;;;20.70;45.40;;;;;;6271247;28;20383;-68
2020/12/15 04:45:35;;;;;;;1.58;1.27;;;20.70;45.50;;;;;;6270954;28;20036;-69
2020/12/15 04:48:43;;;;;;;1.30;0.90;;;20.70;45.40;;;;;;6271220;28;20110;-68
2020/12/15 04:52:05;;;;;;;1.33;1.15;;;20.70;45.50;;;;;;6261279;28;20079;-68
2020/12/15 04:55:05;;;;;;;1.40;1.10;;;20.60;45.40;;;;;;6245860;28;20476;-68
2020/12/15 04:58:07;;;;;;;1.08;0.95;;;20.60;45.30;;;;;;6245010;28;20030;-68
2020/12/15 05:01:08;;;;;;;1.60;1.00;;;20.60;45.40;;;;;;6245697;28;20189;-68
2020/12/15 05:04:11;;;;;;;1.30;1.00;;;20.60;45.40;;;;;;6245231;28;20033;-68
2020/12/15 05:07:11;;;;;;;1.00;0.85;;;20.60;45.40;;;;;;6245572;28;20466;-68
2020/12/15 05:10:17;;;;;;;1.27;0.98;;;20.60;45.60;;;;;;6243664;28;20076;-68
2020/12/15 05:13:18;;;;;;;1.02;0.93;;;20.60;45.40;;;;;;6245290;28;20095;-68
2020/12/15 05:16:18;;;;;;;1.67;1.15;;;20.60;45.50;;;;;;6245206;28;20033;-68
2020/12/15 05:19:19;;;;;;;1.38;1.10;;;20.70;45.30;;;;;;6243791;28;20034;-68
2020/12/15 05:22:20;;;;;;;1.52;0.88;;;20.70;46.00;;;;;;6244902;28;20152;-68
2020/12/15 05:25:28;;;;;;;0.98;0.80;;;20.70;45.10;;;;;;6244631;28;20034;-68
2020/12/15 05:28:29;;;;;;;1.00;0.90;;;20.70;45.10;;;;;;6245038;28;20021;-68
2020/12/15 05:31:29;;;;;;;1.40;1.08;;;20.70;45.10;;;;;;6244154;28;20033;-68
2020/12/15 05:34:30;;;;;;;1.42;0.98;;;20.70;45.10;;;;;;6244831;28;20021;-67
2020/12/15 05:37:30;;;;;;;1.23;1.13;;;20.70;45.10;;;;;;6244648;28;20124;-68
2020/12/15 05:40:31;;;;;;;1.30;1.00;;;20.80;45.20;;;;;;6244379;28;20113;-68
2020/12/15 05:43:33;;;;;;;1.13;0.93;;;20.80;45.20;;;;;;6243809;28;20056;-68
2020/12/15 05:46:36;;;;;;;0.80;0.80;;;20.80;45.20;;;;;;6244137;28;20021;-68
2020/12/15 05:49:40;;;;;;;1.00;0.90;;;20.80;45.20;;;;;;6244384;28;20017;-67
2020/12/15 05:52:41;;;;;;;1.42;1.10;;;20.80;45.20;;;;;;6243531;28;20044;-68
2020/12/15 05:55:41;;;;;;;0.80;0.80;;;20.80;45.20;;;;;;6244530;28;20084;-68
2020/12/15 05:58:52;;;;;;;1.25;1.10;;;20.80;45.20;;;;;;6243960;28;20038;-68
2020/12/15 06:01:54;;;;;;;1.35;1.13;;;20.80;45.30;;;;;;6244219;28;20053;-68
2020/12/15 06:04:55;;;;;;;1.35;1.02;;;20.80;45.30;;;;;;6251595;28;20475;-68
2020/12/15 06:07:56;;;;;;;0.90;0.80;;;20.80;45.30;;;;;;6268731;28;20086;-68
2020/12/15 06:11:01;;;;;;;1.10;1.00;;;20.80;45.30;;;;;;6268473;28;20029;-67
2020/12/15 06:14:01;;;;;;;1.08;0.98;;;20.90;45.40;;;;;;6268608;28;20100;-68
2020/12/15 06:17:02;;;;;;;1.83;1.20;;;20.90;45.50;;;;;;6267502;28;20032;-68
2020/12/15 06:20:02;;;;;;;1.15;1.00;;;21.00;45.30;;;;;;6243387;28;20037;-68
2020/12/15 06:23:09;;;;;;;1.20;0.90;;;21.00;45.20;;;;;;6243575;28;20137;-68
2020/12/15 06:26:10;;;;;;;1.00;0.90;;;21.10;45.10;;;;;;6243931;28;20017;-68
2020/12/15 06:29:10;;;;;;;1.00;0.82;;;21.20;45.00;;;;;;6243201;28;20522;-68
2020/12/15 06:32:18;;;;;;;0.82;0.75;;;21.20;44.90;;;;;;6243167;28;20492;-67
2020/12/15 06:35:24;;;;;;;1.58;1.00;;;21.30;45.00;;;;;;6243534;28;20021;-67
2020/12/15 06:38:25;;;;;;;1.00;0.90;;;21.30;44.90;;;;;;6243016;28;20061;-68
2020/12/15 06:41:27;;;;;;;1.48;1.00;;;21.30;44.80;;;;;;6243930;28;20033;-68
2020/12/15 06:44:35;;;;;;;3.67;0.98;;;21.40;44.90;;;;;;6243262;28;20044;-66
2020/12/15 06:47:36;;;;;;;24.80;8.38;;;21.40;44.80;;;;;;6242693;28;20025;-71
2020/12/15 06:50:42;;;;;;;15.18;7.95;;;21.10;43.00;;;;;;6258227;28;20059;-68
2020/12/15 06:53:43;;;;;;;;;;;21.00;40.60;;;;;;6263557;28;20032;-67
2020/12/15 06:56:43;;;;;;;26.13;10.70;;;21.00;40.60;;;;;;6248382;28;20371;-66
2020/12/15 06:59:49;;;;;;;17.75;10.90;;;21.00;39.30;;;;;;6245219;28;20480;-67
2020/12/15 07:02:50;;;;;;;;;;;21.00;38.80;;;;;;6245038;28;20396;-67
2020/12/15 07:05:51;;;;;;;17.02;9.95;;;20.90;38.20;;;;;;6253346;28;19905;-67
2020/12/15 07:09:03;;;;;;;11.18;7.55;;;20.90;37.70;;;;;;6255326;28;20048;-67
2020/12/15 07:12:15;;;;;;;11.20;7.68;;;21.00;39.60;;;;;;6243990;28;20080;-66
2020/12/15 07:15:16;;;;;;;11.65;7.45;;;21.20;39.60;;;;;;6244222;28;20032;-67
2020/12/15 07:18:17;;;;;;;10.20;6.55;;;21.30;39.20;;;;;;6250647;28;20483;-67
2020/12/15 07:21:18;;;;;;;8.50;5.88;;;21.50;39.10;;;;;;6260238;28;20075;-68
2020/12/15 07:24:19;;;;;;;7.50;5.90;;;21.50;39.70;;;;;;6258815;28;20025;-68
2020/12/15 07:27:23;;;;;;;8.40;5.40;;;21.60;39.00;;;;;;6267917;28;20025;-68
2020/12/15 07:30:23;;;;;;;9.52;5.63;;;21.50;39.90;;;;;;6268072;28;20028;-69
2020/12/15 07:33:23;;;;;;;8.65;4.95;;;21.60;40.50;;;;;;6268196;28;20029;-68
2020/12/15 07:36:24;;;;;;;6.70;4.72;;;21.70;40.70;;;;;;6268357;28;20028;-70
2020/12/15 07:39:25;;;;;;;13.63;4.65;;;21.70;39.90;;;;;;6238724;28;20140;-69
2020/12/15 07:42:25;;;;;;;10.38;4.13;;;21.70;40.80;;;;;;6242778;28;20025;-68
2020/12/15 07:45:28;;;;;;;6.00;4.60;;;21.80;40.70;;;;;;6246449;28;20079;-68
2020/12/15 07:48:29;;;;;;;7.75;4.60;;;21.80;40.60;;;;;;6249105;28;20041;-68
2020/12/15 07:51:33;;;;;;;7.53;3.88;;;21.80;40.90;;;;;;6242265;28;20456;-69
2020/12/15 07:54:33;;;;;;;6.70;3.97;;;21.90;40.90;;;;;;6254668;28;20511;-68
2020/12/15 07:57:38;;;;;;;5.55;3.55;;;21.90;40.70;;;;;;6270811;28;20034;-71
2020/12/15 08:00:39;;;;;;;;;;;22.00;41.20;;;;;;6252155;28;20052;-68
2020/12/15 08:03:39;;;;;;;7.80;3.85;;;22.10;41.40;;;;;;6260161;28;20381;-70
2020/12/15 08:06:42;;;;;;;5.55;3.58;;;22.10;41.20;;;;;;6247414;28;20029;-68
2020/12/15 08:09:46;;;;;;;11.02;4.03;;;22.20;41.60;;;;;;6251987;28;20017;-69
2020/12/15 08:12:47;;;;;;;8.00;3.50;;;22.20;41.40;;;;;;6247707;28;20021;-68
2020/12/15 08:15:48;;;;;;;6.78;3.22;;;22.20;41.30;;;;;;6267796;28;20086;-70
2020/12/15 08:18:49;;;;;;;7.15;3.25;;;22.20;41.50;;;;;;6268574;28;20083;-68
2020/12/15 08:21:53;;;;;;;6.03;2.78;;;22.20;41.40;;;;;;6248695;28;20035;-68
2020/12/15 08:24:56;;;;;;;4.00;3.15;;;22.30;41.60;;;;;;6255028;28;20033;-68
2020/12/15 08:28:20;;;;;;;3.40;2.97;;;22.30;41.70;;;;;;6248575;28;20528;-67
2020/12/15 08:31:22;;;;;;;5.18;3.15;;;22.30;41.80;;;;;;6269732;28;20025;-67
2020/12/15 08:34:22;;;;;;;8.20;3.08;;;22.30;41.90;;;;;;6272710;28;20432;-67
2020/12/15 08:37:23;;;;;;;3.78;2.92;;;22.30;41.90;;;;;;6272176;28;20057;-69
2020/12/15 08:40:25;;;;;;;4.65;3.17;;;22.30;41.80;;;;;;6262126;28;20032;-69
2020/12/15 08:43:26;;;;;;;5.35;3.25;;;22.30;42.10;;;;;;6252776;28;20021;-69
2020/12/15 08:46:34;;;;;;;3.70;2.90;;;22.30;42.20;;;;;;6250925;28;20035;-70
2020/12/15 08:49:35;;;;;;;4.90;3.20;;;22.30;42.30;;;;;;6252784;28;20052;-70
2020/12/15 08:52:35;;;;;;;5.00;3.00;;;22.30;42.20;;;;;;6273911;28;20110;-69
2020/12/15 08:55:36;;;;;;;7.90;2.85;;;22.40;42.30;;;;;;6275067;28;20025;-70
2020/12/15 08:58:37;;;;;;;6.82;2.85;;;22.40;42.40;;;;;;6270698;28;20033;-71
2020/12/15 09:01:37;;;;;;;13.73;3.17;;;22.40;42.60;;;;;;6251961;28;20060;-68
2020/12/15 09:04:39;;;;;;;30.95;3.60;;;22.40;42.60;;;;;;6246608;28;20053;-69
2020/12/15 09:07:40;;;;;;;22.70;3.50;;;22.40;42.90;;;;;;6246309;28;20018;-70
2020/12/15 09:10:41;;;;;;;18.08;3.40;;;22.30;43.10;;;;;;6249206;28;20463;-70
2020/12/15 09:13:52;;;;;;;8.02;3.08;;;22.20;43.80;;;;;;6247221;28;20108;-70
2020/12/15 09:16:52;;;;;;;16.90;2.90;;;22.20;43.10;;;;;;6246903;28;20288;-70
2020/12/15 09:19:53;;;;;;;7.97;3.10;;;22.10;43.20;;;;;;6246054;28;20387;-70
2020/12/15 09:22:54;;;;;;;10.75;3.28;;;22.10;43.30;;;;;;6245522;28;20060;-70
2020/12/15 09:25:54;;;;;;;6.75;3.15;;;22.10;43.90;;;;;;6254632;28;20071;-70
2020/12/15 09:29:06;;;;;;;11.55;2.70;;;22.00;43.30;;;;;;6268600;28;20487;-70
2020/12/15 09:32:07;;;;;;;4.72;2.40;;;22.00;43.30;;;;;;6256787;28;20063;-70
2020/12/15 09:35:09;;;;;;;5.00;2.47;;;22.00;43.30;;;;;;6270230;28;20140;-70
2020/12/15 09:38:09;;;;;;;5.45;2.55;;;21.90;43.40;;;;;;6269609;28;20025;-70
2020/12/15 09:41:10;;;;;;;5.78;2.80;;;21.90;43.40;;;;;;6255284;28;20036;-70
2020/12/15 09:44:10;;;;;;;8.80;2.65;;;21.80;43.40;;;;;;6252305;28;20031;-70
2020/12/15 09:47:11;;;;;;;6.20;2.92;;;21.80;43.40;;;;;;6252802;28;20021;-69
2020/12/15 09:50:12;;;;;;;7.30;2.92;;;21.80;43.50;;;;;;6245800;28;20059;-69
2020/12/15 09:53:13;;;;;;;2.88;2.47;;;21.90;43.50;;;;;;6268179;28;20017;-69
2020/12/15 09:56:16;;;;;;;3.33;2.50;;;21.80;43.60;;;;;;6269113;28;20040;-69
2020/12/15 09:59:17;;;;;;;3.45;2.40;;;21.80;43.60;;;;;;6269710;28;20020;-69
2020/12/15 10:02:17;;;;;;;4.20;2.65;;;21.80;43.60;;;;;;6254481;28;20022;-69
2020/12/15 10:05:18;;;;;;;4.68;2.45;;;21.80;43.70;;;;;;6269430;28;20086;-69
2020/12/15 10:08:19;;;;;;;6.43;2.65;;;21.70;43.60;;;;;;6269437;28;20055;-69
2020/12/15 10:11:21;;;;;;;3.92;2.47;;;21.70;43.60;;;;;;6262495;28;20515;-69
2020/12/15 10:14:22;;;;;;;5.70;2.72;;;21.70;43.80;;;;;;6244893;28;20044;-69
2020/12/15 10:17:22;;;;;;;12.32;2.78;;;21.60;43.50;;;;;;6257314;28;20028;-68
2020/12/15 10:20:23;;;;;;;5.22;2.90;;;21.70;43.60;;;;;;6266276;28;20166;-68
2020/12/15 10:23:23;;;;;;;7.70;2.85;;;21.70;43.30;;;;;;6262562;28;20051;-68
2020/12/15 10:26:24;;;;;;;7.00;2.67;;;21.70;43.20;;;;;;6254128;28;20025;-67
2020/12/15 10:29:29;;;;;;;5.38;2.60;;;21.70;43.30;;;;;;6245712;28;20047;-68
2020/12/15 10:32:29;;;;;;;8.52;3.38;;;21.70;43.30;;;;;;6245666;28;20140;-68
2020/12/15 10:35:30;;;;;;;4.82;2.53;;;21.70;43.40;;;;;;6244322;28;20488;-69
2020/12/15 10:38:31;;;;;;;5.82;2.92;;;21.70;43.30;;;;;;6244431;28;20108;-68
2020/12/15 10:41:36;;;;;;;6.22;2.70;;;21.80;43.40;;;;;;6246517;28;20504;-69
2020/12/15 10:44:37;;;;;;;4.03;2.45;;;21.80;43.50;;;;;;6246866;28;20179;-69
2020/12/15 10:47:37;;;;;;;4.00;2.50;;;21.80;43.50;;;;;;6258369;28;20475;-69
2020/12/15 10:50:39;;;;;;;3.67;2.60;;;21.80;43.50;;;;;;6270352;28;20086;-68
2020/12/15 10:53:40;;;;;;;3.38;2.28;;;21.90;43.50;;;;;;6248596;28;20021;-69
2020/12/15 10:56:42;;;;;;;3.40;2.45;;;21.80;43.40;;;;;;6247782;28;20568;-67
2020/12/15 10:59:42;;;;;;;5.80;2.13;;;21.90;43.60;;;;;;6249273;28;20488;-67
2020/12/15 11:02:43;;;;;;;6.00;2.47;;;22.00;43.60;;;;;;6243690;28;20090;-68
2020/12/15 11:05:43;;;;;;;4.35;2.40;;;21.90;43.30;;;;;;6243687;28;20034;-67
2020/12/15 11:08:44;;;;;;;5.35;2.92;;;22.00;43.60;;;;;;6262608;28;20024;-67
2020/12/15 11:11:48;;;;;;;14.02;2.70;;;22.00;43.90;;;;;;6267905;28;20025;-69
2020/12/15 11:14:49;;;;;;;23.17;2.53;;;22.00;43.80;;;;;;6244952;28;20032;-72
2020/12/15 11:17:49;;;;;;;10.40;2.50;;;22.00;44.10;;;;;;6246972;28;20029;-71
2020/12/15 11:20:50;;;;;;;15.05;2.88;;;22.00;43.90;;;;;;6243299;28;20032;-67
2020/12/15 11:23:50;;;;;;;8.32;2.88;;;21.90;44.00;;;;;;6261832;28;20041;-69
2020/12/15 11:26:51;;;;;;;11.10;2.53;;;22.00;44.20;;;;;;6268782;28;20116;-70
2020/12/15 11:29:51;;;;;;;4.57;2.15;;;21.90;44.00;;;;;;6269867;28;20056;-69
2020/12/15 11:32:52;;;;;;;4.63;2.50;;;21.90;44.00;;;;;;6273060;28;20036;-69
2020/12/15 11:35:52;;;;;;;3.00;2.08;;;21.90;44.00;;;;;;6274575;28;20055;-69
2020/12/15 11:38:53;;;;;;;4.88;2.40;;;21.90;44.10;;;;;;6258107;28;20030;-71
2020/12/15 11:41:53;;;;;;;11.90;2.63;;;21.90;44.00;;;;;;6250827;28;20075;-71
2020/12/15 11:44:54;;;;;;;9.38;3.00;;;21.90;44.00;;;;;;6273873;28;20025;-71
2020/12/15 11:47:59;;;;;;;6.88;2.83;;;21.90;44.10;;;;;;6261818;28;20021;-71
2020/12/15 11:50:59;;;;;;;6.35;2.75;;;21.90;44.00;;;;;;6267045;28;20045;-71
2020/12/15 11:54:00;;;;;;;13.68;2.85;;;21.90;44.00;;;;;;6264815;28;20027;-71
2020/12/15 11:57:00;;;;;;;11.63;3.55;;;21.90;44.00;;;;;;6276315;28;20389;-71
2020/12/15 12:00:04;;;;;;;8.98;3.40;;;21.90;44.20;;;;;;6275302;28;20036;-72
2020/12/15 12:03:04;;;;;;;6.45;2.55;;;21.90;44.00;;;;;;6252210;28;20118;-71
2020/12/15 12:06:05;;;;;;;6.55;2.88;;;21.90;44.00;;;;;;6250270;28;20030;-71
2020/12/15 12:09:05;;;;;;;13.95;3.83;;;21.90;44.00;;;;;;6249956;28;20053;-70
2020/12/15 12:12:06;;;;;;;16.42;4.28;;;21.90;44.20;;;;;;6262854;28;20057;-69
2020/12/15 12:15:06;;;;;;;14.75;3.92;;;21.90;44.00;;;;;;6298341;28;20044;-70
2020/12/15 12:18:07;;;;;;;11.27;3.97;;;21.90;44.00;;;;;;6291373;28;20028;-71
2020/12/15 12:21:07;;;;;;;13.65;4.65;;;21.90;44.20;;;;;;6252529;28;20026;-71
2020/12/15 12:24:08;;;;;;;17.98;4.70;;;21.80;44.20;;;;;;6265635;28;20026;-71
2020/12/15 12:27:08;;;;;;;13.75;4.50;;;21.80;44.20;;;;;;6250827;28;20117;-71
2020/12/15 12:30:09;;;;;;;17.80;4.45;;;21.90;44.30;;;;;;6250308;28;20030;-71
2020/12/15 12:33:09;;;;;;;13.20;4.25;;;21.80;44.30;;;;;;6250248;28;20475;-71
2020/12/15 12:36:10;;;;;;;12.68;4.68;;;21.90;44.40;;;;;;6250358;28;20022;-70
2020/12/15 12:39:10;;;;;;;14.20;4.03;;;21.90;44.30;;;;;;6257466;28;20112;-72
2020/12/15 12:42:12;;;;;;;11.50;3.88;;;21.80;44.40;;;;;;6248667;28;20060;-72
2020/12/15 12:45:13;;;;;;;9.77;4.20;;;21.90;44.40;;;;;;6247951;28;20025;-73
2020/12/15 12:48:13;;;;;;;12.35;4.10;;;21.90;44.40;;;;;;6248741;28;20071;-68
2020/12/15 12:51:17;;;;;;;14.77;4.82;;;21.80;44.40;;;;;;6273217;28;20025;-69
2020/12/15 12:54:17;;;;;;;19.92;4.80;;;21.80;44.50;;;;;;6272034;28;20032;-69
2020/12/15 12:57:18;;;;;;;19.20;5.00;;;21.80;44.60;;;;;;6273726;28;20472;-68
2020/12/15 13:00:18;;;;;;;12.18;4.57;;;21.80;44.60;;;;;;6256704;28;20025;-68
2020/12/15 13:03:19;;;;;;;11.15;4.25;;;21.90;44.60;;;;;;6265122;28;20033;-69
2020/12/15 13:06:19;;;;;;;14.07;4.20;;;21.90;44.60;;;;;;6269020;28;20032;-70
2020/12/15 13:09:21;;;;;;;15.13;3.90;;;21.90;44.30;;;;;;6271692;28;20082;-68
2020/12/15 13:12:21;;;;;;;12.93;4.05;;;22.00;44.40;;;;;;6272754;28;20114;-68
2020/12/15 13:15:24;;;;;;;14.82;4.47;;;22.00;44.80;;;;;;6271650;28;20037;-68
2020/12/15 13:18:25;;;;;;;15.02;3.72;;;22.00;44.50;;;;;;6265331;28;20072;-68
2020/12/15 13:21:25;;;;;;;13.88;4.10;;;22.00;44.70;;;;;;6247395;28;20083;-68
2020/12/15 13:24:26;;;;;;;15.82;4.03;;;22.00;44.60;;;;;;6245843;28;20040;-71
2020/12/15 13:27:26;;;;;;;16.88;4.78;;;22.00;44.70;;;;;;6243248;28;20661;-69
2020/12/15 13:30:27;;;;;;;11.43;3.95;;;22.00;44.70;;;;;;6245725;28;20022;-69
2020/12/15 13:33:29;;;;;;;10.02;4.03;;;22.00;44.40;;;;;;6246327;28;20389;-67
2020/12/15 13:36:29;;;;;;;11.30;4.20;;;22.10;44.90;;;;;;6245347;28;20018;-70
2020/12/15 13:39:30;;;;;;;15.38;3.97;;;22.10;44.80;;;;;;6243802;28;20040;-67
2020/12/15 13:42:30;;;;;;;14.55;4.00;;;22.10;45.00;;;;;;6246972;28;20436;-70
2020/12/15 13:45:31;;;;;;;11.02;3.42;;;22.10;44.80;;;;;;6255034;28;20384;-69
2020/12/15 13:48:31;;;;;;;19.10;3.47;;;22.20;45.10;;;;;;6251545;28;20037;-69
2020/12/15 13:51:37;;;;;;;19.33;4.10;;;22.20;45.10;;;;;;6246232;28;20044;-72
2020/12/15 13:54:38;;;;;;;18.67;4.65;;;22.10;44.60;;;;;;6243840;28;20028;-70
2020/12/15 13:57:38;;;;;;;13.82;3.50;;;22.10;44.70;;;;;;6244731;28;20080;-69
2020/12/15 14:00:40;;;;;;;17.42;3.83;;;22.10;44.70;;;;;;6244878;28;20416;-71
2020/12/15 14:03:41;;;;;;;12.85;3.58;;;22.10;44.60;;;;;;6248713;28;20064;-73
2020/12/15 14:06:42;;;;;;;13.05;3.42;;;22.20;44.60;;;;;;6262995;28;20028;-67
2020/12/15 14:09:42;;;;;;;13.73;4.38;;;22.20;44.80;;;;;;6273324;28;20429;-71
2020/12/15 14:12:43;;;;;;;10.10;3.10;;;22.20;44.60;;;;;;6268723;28;20056;-71
2020/12/15 14:15:43;;;;;;;7.13;3.05;;;22.20;44.60;;;;;;6266060;28;20037;-69
2020/12/15 14:18:44;;;;;;;6.05;2.95;;;22.20;45.00;;;;;;6265555;28;20025;-69
2020/12/15 14:21:46;;;;;;;8.32;3.08;;;22.10;44.80;;;;;;6266339;28;20034;-69
2020/12/15 14:24:46;;;;;;;8.93;3.40;;;22.10;44.80;;;;;;6247132;28;20080;-68
2020/12/15 14:27:47;;;;;;;10.98;3.08;;;22.10;44.80;;;;;;6266111;28;20499;-69
2020/12/15 14:30:47;;;;;;;7.70;2.45;;;22.10;44.90;;;;;;6256403;28;20040;-68
2020/12/15 14:33:48;;;;;;;10.45;3.45;;;22.10;44.80;;;;;;6271060;28;20025;-69
2020/12/15 14:36:49;;;;;;;6.57;2.80;;;22.10;44.80;;;;;;6270825;28;20108;-68
2020/12/15 14:39:49;;;;;;;8.02;3.30;;;22.10;44.90;;;;;;6264779;28;20075;-69
2020/12/15 14:42:50;;;;;;;7.95;2.85;;;22.10;44.90;;;;;;6250187;28;20037;-68
2020/12/15 14:45:50;;;;;;;7.97;3.42;;;22.10;45.10;;;;;;6246055;28;20028;-69
2020/12/15 14:48:59;;;;;;;6.43;2.92;;;22.10;45.10;;;;;;6247269;28;20091;-68
2020/12/15 14:52:00;;;;;;;12.57;4.97;;;22.10;45.10;;;;;;6268783;28;20460;-69
2020/12/15 14:55:00;;;;;;;15.02;5.63;;;22.10;44.90;;;;;;6262890;28;20025;-68
2020/12/15 14:58:01;;;;;;;25.50;7.97;;;22.10;45.10;;;;;;6250529;28;20028;-68
2020/12/15 15:01:02;;;;;;;28.08;10.07;;;22.10;45.00;;;;;;6245269;28;20048;-69
2020/12/15 15:04:03;;;;;;;30.02;10.32;;;22.20;45.10;;;;;;6245769;28;20029;-69
2020/12/15 15:07:04;;;;;;;29.20;9.40;;;22.10;45.10;;;;;;6248236;28;20119;-68
2020/12/15 15:10:05;;;;;;;26.60;9.02;;;22.10;45.20;;;;;;6245528;28;20025;-69
2020/12/15 15:13:06;;;;;;;32.38;10.23;;;22.10;45.10;;;;;;6245638;28;20112;-69
2020/12/15 15:16:07;;;;;;;26.67;10.68;;;22.10;45.10;;;;;;6246621;28;20084;-68
2020/12/15 15:19:07;;;;;;;28.63;11.35;;;22.10;45.10;;;;;;6259770;28;20025;-69
2020/12/15 15:22:08;;;;;;;37.72;13.02;;;22.10;45.20;;;;;;6255099;28;20070;-69
2020/12/15 15:25:09;;;;;;;35.83;12.95;;;22.10;45.10;;;;;;6273088;28;20060;-68
2020/12/15 15:28:09;;;;;;;33.00;12.52;;;22.10;45.20;;;;;;6259632;28;20030;-69
2020/12/15 15:31:09;;;;;;;42.45;13.18;;;22.10;45.20;;;;;;6253917;28;20092;-69
2020/12/15 15:34:10;;;;;;;33.60;12.40;;;22.10;45.20;;;;;;6271496;28;20021;-68
2020/12/15 15:37:10;;;;;;;36.25;12.82;;;22.10;45.30;;;;;;6267102;28;20550;-68
2020/12/15 15:40:11;;;;;;;39.05;13.43;;;22.10;45.30;;;;;;6243529;28;20029;-70